createdAt,value
2022-08-26T00:02:07.740Z,1.15
2022-08-26T00:04:36.393Z,1.20
2022-08-26T00:07:06.244Z,1.10
2022-08-26T00:09:39.074Z,1.42
2022-08-26T00:12:12.428Z,0.98
2022-08-26T00:14:41.989Z,1.00
2022-08-26T00:17:10.700Z,1.02
2022-08-26T00:19:38.934Z,0.85
2022-08-26T00:22:08.691Z,1.60
2022-08-26T00:24:36.814Z,1.15
2022-08-26T00:27:06.426Z,1.65
2022-08-26T00:29:37.672Z,1.40
2022-08-26T00:32:06.773Z,1.23
2022-08-26T00:34:36.857Z,1.30
2022-08-26T00:37:09.006Z,1.10
2022-08-26T00:39:40.082Z,1.13
2022-08-26T00:42:08.512Z,1.30
2022-08-26T00:44:36.668Z,0.95
2022-08-26T00:47:09.643Z,1.63
2022-08-26T00:49:40.338Z,0.88
2022-08-26T00:52:13.317Z,0.80
2022-08-26T00:54:50.893Z,1.00
2022-08-26T00:57:21.236Z,1.00
2022-08-26T00:59:54.453Z,0.93
2022-08-26T01:02:22.755Z,0.95
2022-08-26T01:04:54.405Z,1.40
2022-08-26T01:07:25.814Z,0.93
2022-08-26T01:09:55.835Z,1.58
2022-08-26T01:12:26.409Z,0.82
2022-08-26T01:14:54.992Z,0.93
2022-08-26T01:17:24.148Z,0.82
2022-08-26T01:19:57.369Z,0.65
2022-08-26T01:22:31.216Z,0.95
2022-08-26T01:25:04.066Z,0.90
2022-08-26T01:27:35.548Z,0.80
2022-08-26T01:32:34.463Z,1.30
2022-08-26T01:35:03.373Z,0.60
2022-08-26T01:37:38.978Z,0.68
2022-08-26T01:40:17.884Z,0.50
2022-08-26T01:42:46.909Z,1.08
2022-08-26T01:45:19.700Z,0.70
2022-08-26T01:47:50.021Z,0.88
2022-08-26T01:50:30.636Z,0.70
2022-08-26T01:53:07.136Z,0.70
2022-08-26T01:55:38.897Z,0.60
2022-08-26T01:58:21.101Z,0.52
2022-08-26T02:00:49.605Z,0.80
2022-08-26T02:03:22.445Z,0.75
2022-08-26T02:05:54.973Z,0.68
2022-08-26T02:08:27.655Z,0.70
2022-08-26T02:10:57.448Z,0.75
2022-08-26T02:13:30.127Z,0.93
2022-08-26T02:15:59.164Z,0.60
2022-08-26T02:18:29.448Z,0.80
2022-08-26T02:20:58.209Z,0.77
2022-08-26T02:23:26.880Z,0.70
2022-08-26T02:26:03.771Z,0.82
2022-08-26T02:28:40.056Z,0.70
2022-08-26T02:31:08.961Z,0.85
2022-08-26T02:33:38.277Z,0.88
2022-08-26T02:36:12.156Z,1.08
2022-08-26T02:38:43.041Z,1.20
2022-08-26T02:41:12.975Z,0.88
2022-08-26T02:43:42.255Z,0.80
2022-08-26T02:46:10.904Z,0.98
2022-08-26T02:48:39.233Z,1.15
2022-08-26T02:51:08.037Z,0.90
2022-08-26T02:53:36.526Z,0.98
2022-08-26T02:56:05.649Z,0.85
2022-08-26T02:58:35.554Z,0.95
2022-08-26T03:01:04.867Z,0.88
2022-08-26T03:03:33.823Z,0.98
2022-08-26T03:06:02.355Z,0.88
2022-08-26T03:08:30.532Z,0.80
2022-08-26T03:10:59.302Z,0.90
2022-08-26T03:13:30.356Z,0.85
2022-08-26T03:16:02.004Z,1.10
2022-08-26T03:18:30.686Z,1.05
2022-08-26T03:20:58.894Z,0.95
2022-08-26T03:23:27.065Z,0.93
2022-08-26T03:25:56.860Z,0.90
2022-08-26T03:28:27.149Z,0.90
2022-08-26T03:30:54.827Z,1.20
2022-08-26T03:33:24.884Z,1.40
2022-08-26T03:35:53.981Z,1.48
2022-08-26T03:38:25.157Z,1.02
2022-08-26T03:40:53.406Z,0.85
2022-08-26T03:43:22.464Z,0.90
2022-08-26T03:45:51.323Z,0.88
2022-08-26T03:48:20.770Z,1.10
2022-08-26T03:50:50.551Z,0.90
2022-08-26T03:53:20.491Z,0.85
2022-08-26T03:55:48.897Z,0.95
2022-08-26T03:58:20.650Z,0.80
2022-08-26T04:00:49.466Z,1.25
2022-08-26T04:03:37.486Z,1.23
2022-08-26T04:06:07.640Z,0.88
2022-08-26T04:08:35.861Z,2.00
2022-08-26T04:11:04.002Z,0.95
2022-08-26T04:13:32.587Z,0.70
2022-08-26T04:16:00.889Z,0.60
2022-08-26T04:18:33.195Z,0.43
2022-08-26T04:21:08.026Z,0.55
2022-08-26T04:23:47.282Z,0.60
2022-08-26T04:26:16.401Z,0.50
2022-08-26T04:28:44.942Z,0.30
2022-08-26T04:31:14.864Z,0.60
2022-08-26T04:33:44.862Z,0.20
2022-08-26T04:36:16.252Z,0.45
2022-08-26T04:38:45.853Z,0.40
2022-08-26T04:41:15.002Z,0.60
2022-08-26T04:43:45.609Z,0.88
2022-08-26T04:46:17.580Z,1.10
2022-08-26T04:48:47.990Z,0.85
2022-08-26T04:51:17.835Z,0.70
2022-08-26T04:53:46.868Z,0.63
2022-08-26T04:56:15.691Z,0.60
2022-08-26T04:58:43.860Z,0.65
2022-08-26T05:01:12.098Z,0.63
2022-08-26T05:03:40.937Z,0.70
2022-08-26T05:06:09.966Z,0.60
2022-08-26T05:08:39.601Z,0.55
2022-08-26T05:11:09.640Z,0.40
2022-08-26T05:13:39.191Z,0.70
2022-08-26T05:16:11.557Z,0.63
2022-08-26T05:18:41.154Z,0.90
2022-08-26T05:21:18.347Z,1.05
2022-08-26T05:23:48.297Z,0.85
2022-08-26T05:26:17.687Z,0.80
2022-08-26T05:28:51.667Z,0.73
2022-08-26T05:31:25.338Z,1.00
2022-08-26T05:33:53.851Z,0.70
2022-08-26T05:36:23.893Z,0.77
2022-08-26T05:38:57.869Z,0.80
2022-08-26T05:41:34.565Z,0.60
2022-08-26T05:44:07.061Z,0.85
2022-08-26T05:46:37.032Z,0.70
2022-08-26T05:49:12.849Z,0.70
2022-08-26T05:51:42.152Z,0.60
2022-08-26T05:54:11.832Z,0.68
2022-08-26T05:56:40.346Z,0.55
2022-08-26T05:59:15.438Z,0.55
2022-08-26T06:01:44.896Z,0.47
2022-08-26T06:04:13.854Z,0.60
2022-08-26T06:06:42.871Z,0.70
2022-08-26T06:09:14.654Z,0.70
2022-08-26T06:11:45.794Z,0.50
2022-08-26T06:14:13.869Z,0.50
2022-08-26T06:16:45.193Z,0.60
2022-08-26T06:19:15.544Z,0.50
2022-08-26T06:21:47.809Z,0.47
2022-08-26T06:24:41.350Z,0.52
2022-08-26T06:27:13.786Z,0.80
2022-08-26T06:29:42.728Z,0.75
2022-08-26T06:32:10.855Z,0.50
2022-08-26T06:34:39.098Z,0.50
2022-08-26T06:37:07.316Z,0.80
2022-08-26T06:39:37.640Z,0.60
2022-08-26T06:42:09.301Z,0.43
2022-08-26T06:44:41.133Z,0.40
2022-08-26T06:47:09.551Z,0.50
2022-08-26T06:49:38.395Z,0.40
2022-08-26T06:52:08.105Z,0.40
2022-08-26T06:54:43.125Z,0.50
2022-08-26T06:57:14.251Z,0.50
2022-08-26T06:59:44.855Z,0.30
2022-08-26T07:02:13.591Z,0.68
2022-08-26T07:04:42.383Z,0.60
2022-08-26T07:07:14.333Z,0.60
2022-08-26T07:09:43.817Z,0.70
2022-08-26T07:12:12.063Z,0.70
2022-08-26T07:14:41.489Z,0.98
2022-08-26T07:17:15.770Z,1.02
2022-08-26T07:19:44.718Z,0.60
2022-08-26T07:22:14.458Z,0.45
2022-08-26T07:24:44.098Z,0.63
2022-08-26T07:27:15.112Z,0.93
2022-08-26T07:29:44.973Z,0.85
2022-08-26T07:32:15.022Z,0.93
2022-08-26T07:34:44.055Z,0.68
2022-08-26T07:37:12.349Z,0.40
2022-08-26T07:39:41.789Z,0.43
2022-08-26T07:42:14.469Z,0.60
2022-08-26T07:44:43.542Z,0.70
2022-08-26T07:47:25.126Z,0.75
2022-08-26T07:49:55.228Z,0.93
2022-08-26T07:52:26.733Z,0.80
2022-08-26T07:54:56.162Z,1.25
2022-08-26T07:57:26.408Z,0.60
2022-08-26T07:59:55.264Z,0.77
2022-08-26T08:02:24.882Z,0.80
2022-08-26T08:04:54.697Z,0.52
2022-08-26T08:07:25.763Z,0.68
2022-08-26T08:10:11.476Z,0.70
2022-08-26T08:12:41.712Z,0.57
2022-08-26T08:15:11.665Z,0.50
2022-08-26T08:17:39.859Z,0.43
2022-08-26T08:20:09.424Z,0.50
2022-08-26T08:22:37.616Z,0.40
2022-08-26T08:25:08.158Z,0.40
2022-08-26T08:27:41.875Z,0.80
2022-08-26T08:30:13.899Z,0.43
2022-08-26T08:32:43.641Z,0.80
2022-08-26T08:35:14.050Z,0.88
2022-08-26T08:37:43.712Z,0.80
2022-08-26T08:40:18.472Z,0.70
2022-08-26T08:42:55.655Z,0.68
2022-08-26T08:45:36.294Z,0.70
2022-08-26T08:48:14.825Z,0.65
2022-08-26T08:50:45.931Z,0.70
2022-08-26T08:53:18.682Z,0.82
2022-08-26T08:56:00.485Z,0.60
2022-08-26T08:58:43.789Z,1.02
2022-08-26T09:01:25.143Z,1.23
2022-08-26T09:04:17.308Z,0.70
2022-08-26T09:06:48.683Z,0.60
2022-08-26T09:09:24.158Z,0.52
2022-08-26T09:11:53.081Z,0.77
2022-08-26T09:14:23.092Z,0.70
2022-08-26T09:17:01.274Z,0.60
2022-08-26T09:19:40.210Z,0.80
2022-08-26T09:22:09.615Z,0.70
2022-08-26T09:24:41.730Z,0.80
2022-08-26T09:27:37.841Z,0.52
2022-08-26T09:30:11.541Z,0.57
2022-08-26T09:32:40.574Z,0.70
2022-08-26T09:35:24.545Z,0.50
2022-08-26T09:37:53.127Z,0.43
2022-08-26T09:40:27.604Z,0.63
2022-08-26T09:43:15.966Z,0.52
2022-08-26T09:45:59.249Z,0.70
2022-08-26T09:48:31.153Z,0.75
2022-08-26T09:53:31.113Z,0.57
2022-08-26T09:56:17.048Z,0.73
2022-08-26T09:58:47.352Z,0.40
2022-08-26T10:01:30.119Z,0.60
2022-08-26T10:04:07.817Z,0.45
2022-08-26T10:06:40.325Z,0.38
2022-08-26T10:09:14.089Z,0.50
2022-08-26T10:11:47.722Z,0.55
2022-08-26T10:14:20.515Z,0.60
2022-08-26T10:16:56.523Z,0.40
2022-08-26T10:19:41.319Z,0.50
2022-08-26T10:22:21.903Z,0.40
2022-08-26T10:24:55.270Z,0.57
2022-08-26T10:27:34.260Z,0.50
2022-08-26T10:30:08.799Z,0.32
2022-08-26T10:32:42.735Z,0.55
2022-08-26T10:35:14.793Z,0.60
2022-08-26T10:37:47.068Z,0.93
2022-08-26T10:40:21.937Z,0.43
2022-08-26T10:42:55.689Z,0.60
2022-08-26T10:45:27.358Z,0.30
2022-08-26T10:48:04.121Z,0.30
2022-08-26T10:50:34.766Z,0.47
2022-08-26T10:53:12.720Z,0.50
2022-08-26T10:55:49.645Z,0.57
2022-08-26T10:58:44.655Z,0.32
2022-08-26T11:01:36.407Z,0.73
2022-08-26T11:04:22.419Z,0.70
2022-08-26T11:06:52.306Z,0.40
2022-08-26T11:09:45.575Z,0.60
2022-08-26T11:12:49.162Z,0.70
2022-08-26T11:15:50.966Z,0.70
2022-08-26T11:18:38.299Z,0.40
2022-08-26T11:21:47.855Z,0.60
2022-08-26T11:24:46.187Z,0.70
2022-08-26T11:27:47.553Z,0.60
2022-08-26T11:30:57.795Z,0.40
2022-08-26T11:34:11.027Z,0.70
2022-08-26T11:36:56.161Z,0.70
2022-08-26T11:39:29.999Z,0.63
2022-08-26T11:42:01.461Z,0.60
2022-08-26T11:44:39.252Z,0.57
2022-08-26T11:47:11.526Z,0.60
2022-08-26T11:49:41.726Z,0.50
2022-08-26T11:52:14.204Z,0.43
2022-08-26T11:54:42.446Z,0.70
2022-08-26T11:57:14.740Z,0.68
2022-08-26T11:59:43.584Z,0.60
2022-08-26T12:02:19.286Z,0.65
2022-08-26T12:04:51.946Z,6.32
2022-08-26T12:07:25.503Z,1.00
2022-08-26T12:09:58.178Z,0.68
2022-08-26T12:12:35.017Z,1.38
2022-08-26T12:15:11.377Z,1.30
2022-08-26T12:17:40.883Z,0.90
2022-08-26T12:20:19.620Z,1.80
2022-08-26T12:22:49.683Z,0.90
2022-08-26T12:25:24.135Z,0.82
2022-08-26T12:27:54.072Z,0.90
2022-08-26T12:30:24.705Z,1.00
2022-08-26T12:33:21.890Z,0.90
2022-08-26T12:35:56.626Z,0.60
2022-08-26T12:38:28.276Z,0.80
2022-08-26T12:40:57.058Z,1.05
2022-08-26T12:43:40.687Z,0.80
2022-08-26T12:46:12.087Z,0.60
2022-08-26T12:48:44.846Z,0.70
2022-08-26T12:51:24.778Z,0.50
2022-08-26T12:53:55.138Z,0.65
2022-08-26T12:56:30.655Z,0.80
2022-08-26T12:59:04.676Z,0.70
2022-08-26T13:01:39.179Z,0.98
2022-08-26T13:04:07.828Z,0.75
2022-08-26T13:06:36.129Z,0.95
2022-08-26T13:09:32.396Z,0.70
2022-08-26T13:12:02.230Z,0.90
2022-08-26T13:14:30.568Z,0.70
2022-08-26T13:16:58.817Z,0.60
2022-08-26T13:19:27.326Z,0.70
2022-08-26T13:21:57.718Z,0.50
2022-08-26T13:24:35.449Z,0.85
2022-08-26T13:27:04.837Z,0.65
2022-08-26T13:29:33.202Z,1.42
2022-08-26T13:32:02.174Z,0.80
2022-08-26T13:34:31.461Z,0.75
2022-08-26T13:37:00.243Z,0.60
2022-08-26T13:39:30.460Z,0.70
2022-08-26T13:41:58.636Z,0.77
2022-08-26T13:44:27.182Z,0.45
2022-08-26T13:46:55.415Z,0.70
2022-08-26T13:49:23.985Z,0.68
2022-08-26T13:51:52.209Z,0.40
2022-08-26T13:54:20.340Z,0.55
2022-08-26T13:56:49.864Z,0.50
2022-08-26T13:59:18.115Z,0.55
2022-08-26T14:01:46.936Z,0.80
2022-08-26T14:04:15.169Z,0.90
2022-08-26T14:06:43.462Z,0.75
2022-08-26T14:09:11.650Z,0.93
2022-08-26T14:11:50.617Z,0.60
2022-08-26T14:14:25.106Z,0.50
2022-08-26T14:16:59.278Z,0.40
2022-08-26T14:19:29.693Z,0.63
2022-08-26T14:22:00.785Z,0.50
2022-08-26T14:24:30.056Z,0.90
2022-08-26T14:26:58.641Z,0.70
2022-08-26T14:29:28.405Z,0.60
2022-08-26T14:31:58.742Z,0.65
2022-08-26T14:34:27.269Z,0.60
2022-08-26T14:36:55.437Z,0.60
2022-08-26T14:39:23.741Z,1.00
2022-08-26T14:41:56.604Z,0.50
2022-08-26T14:44:30.645Z,0.82
2022-08-26T14:47:01.923Z,1.15
2022-08-26T14:51:59.491Z,0.90
2022-08-26T14:54:26.925Z,0.70
2022-08-26T14:56:58.691Z,1.05
2022-08-26T14:59:31.522Z,1.15
2022-08-26T15:02:00.562Z,0.45
2022-08-26T15:04:29.685Z,0.70
2022-08-26T15:06:59.897Z,0.47
2022-08-26T15:09:29.326Z,0.63
2022-08-26T15:11:57.683Z,0.70
2022-08-26T15:14:28.588Z,0.60
2022-08-26T15:17:00.541Z,0.70
2022-08-26T15:19:29.509Z,0.50
2022-08-26T15:21:57.749Z,0.75
2022-08-26T15:24:28.856Z,0.82
2022-08-26T15:26:57.244Z,0.63
2022-08-26T15:29:25.378Z,0.85
2022-08-26T15:31:55.284Z,0.73
2022-08-26T15:34:26.963Z,0.40
2022-08-26T15:36:55.395Z,0.82
2022-08-26T15:39:23.607Z,0.88
2022-08-26T15:41:52.120Z,0.90
2022-08-26T15:44:20.820Z,0.90
2022-08-26T15:46:51.233Z,0.68
2022-08-26T15:49:21.422Z,1.23
2022-08-26T15:51:51.446Z,0.90
2022-08-26T15:54:22.863Z,0.80
2022-08-26T15:56:52.438Z,0.80
2022-08-26T15:59:22.521Z,0.80
2022-08-26T16:01:51.202Z,1.67
2022-08-26T16:04:20.305Z,0.85
2022-08-26T16:06:52.301Z,0.82
2022-08-26T16:09:24.203Z,0.95
2022-08-26T16:11:52.742Z,1.00
2022-08-26T16:14:21.394Z,0.57
2022-08-26T16:16:49.958Z,0.85
2022-08-26T16:19:18.401Z,0.65
2022-08-26T16:21:47.359Z,1.73
2022-08-26T16:24:16.942Z,1.70
2022-08-26T16:26:45.596Z,1.40
2022-08-26T16:29:15.717Z,1.65
2022-08-26T16:31:44.012Z,0.73
2022-08-26T16:34:12.533Z,2.97
2022-08-26T16:36:41.154Z,2.15
2022-08-26T16:39:10.863Z,2.38
2022-08-26T16:41:40.504Z,2.58
2022-08-26T16:44:11.503Z,1.25
2022-08-26T16:46:41.285Z,0.93
2022-08-26T16:49:09.474Z,1.00
2022-08-26T16:51:38.423Z,1.00
2022-08-26T16:54:08.248Z,0.93
2022-08-26T16:56:37.470Z,1.02
2022-08-26T16:59:10.582Z,0.93
2022-08-26T17:01:38.985Z,0.70
2022-08-26T17:04:07.310Z,1.00
2022-08-26T17:06:35.500Z,0.75
2022-08-26T17:09:03.687Z,1.05
2022-08-26T17:11:31.968Z,0.93
2022-08-26T17:14:00.236Z,1.63
2022-08-26T17:16:29.970Z,1.42
2022-08-26T17:18:58.343Z,1.40
2022-08-26T17:21:27.982Z,1.92
2022-08-26T17:23:57.367Z,1.40
2022-08-26T17:26:25.622Z,0.93
2022-08-26T17:28:53.965Z,1.20
2022-08-26T17:31:23.426Z,1.08
2022-08-26T17:33:54.320Z,0.90
2022-08-26T17:36:28.161Z,0.93
2022-08-26T17:38:57.806Z,0.80
2022-08-26T17:41:27.350Z,1.00
2022-08-26T17:43:55.680Z,0.93
2022-08-26T17:46:24.850Z,1.15
2022-08-26T17:48:54.485Z,0.90
2022-08-26T17:51:23.618Z,0.98
2022-08-26T17:53:52.952Z,1.25
2022-08-26T17:56:25.600Z,2.70
2022-08-26T17:58:55.088Z,1.58
2022-08-26T18:01:27.310Z,1.23
2022-08-26T18:04:00.346Z,1.08
2022-08-26T18:06:31.637Z,1.15
2022-08-26T18:09:00.974Z,1.47
2022-08-26T18:11:30.186Z,1.10
2022-08-26T18:13:59.021Z,1.38
2022-08-26T18:16:27.587Z,1.48
2022-08-26T18:18:57.263Z,0.95
2022-08-26T18:21:27.598Z,1.55
2022-08-26T18:23:56.056Z,1.17
2022-08-26T18:26:27.152Z,0.93
2022-08-26T18:28:55.485Z,0.95
2022-08-26T18:31:23.923Z,1.10
2022-08-26T18:33:52.396Z,1.00
2022-08-26T18:36:25.209Z,0.88
2022-08-26T18:38:54.201Z,0.90
2022-08-26T18:41:24.778Z,1.10
2022-08-26T18:43:54.309Z,1.40
2022-08-26T18:46:25.238Z,1.30
2022-08-26T18:48:54.846Z,1.20
2022-08-26T18:51:26.794Z,1.58
2022-08-26T18:53:55.165Z,1.15
2022-08-26T18:56:23.923Z,1.15
2022-08-26T18:58:52.262Z,1.20
2022-08-26T19:01:25.441Z,1.08
2022-08-26T19:03:55.942Z,1.40
2022-08-26T19:06:27.002Z,1.67
2022-08-26T19:08:55.656Z,1.40
2022-08-26T19:11:31.203Z,1.67
2022-08-26T19:14:01.029Z,1.13
2022-08-26T19:16:30.469Z,1.92
2022-08-26T19:19:00.773Z,1.50
2022-08-26T19:21:32.794Z,1.58
2022-08-26T19:24:03.052Z,1.13
2022-08-26T19:26:32.975Z,1.40
2022-08-26T19:29:01.770Z,1.60
2022-08-26T19:31:30.019Z,1.30
2022-08-26T19:33:59.103Z,1.30
2022-08-26T19:36:29.743Z,1.20
2022-08-26T19:38:58.373Z,1.13
2022-08-26T19:41:37.036Z,1.10
2022-08-26T19:44:08.451Z,1.50
2022-08-26T19:49:10.387Z,1.85
2022-08-26T19:51:39.948Z,1.48
2022-08-26T19:54:08.141Z,1.40
2022-08-26T19:56:36.670Z,1.30
2022-08-26T19:59:05.052Z,1.48
2022-08-26T20:01:33.847Z,2.08
2022-08-26T20:04:02.957Z,1.50
2022-08-26T20:06:31.337Z,1.80
2022-08-26T20:09:01.263Z,1.40
2022-08-26T20:11:29.929Z,1.50
2022-08-26T20:13:59.202Z,2.47
2022-08-26T20:16:27.497Z,2.75
2022-08-26T20:19:13.269Z,3.17
2022-08-26T20:21:42.687Z,2.50
2022-08-26T20:24:14.874Z,2.03
2022-08-26T20:26:45.192Z,2.05
2022-08-26T20:29:16.026Z,1.35
2022-08-26T20:31:44.856Z,1.40
2022-08-26T20:34:14.483Z,1.52
2022-08-26T20:36:43.653Z,1.25
2022-08-26T20:39:14.181Z,1.58
2022-08-26T20:41:42.408Z,1.53
2022-08-26T20:44:11.485Z,1.38
2022-08-26T20:46:39.557Z,1.23
2022-08-26T20:49:08.318Z,1.77
2022-08-26T20:51:38.587Z,1.10
2022-08-26T20:54:08.120Z,1.65
2022-08-26T20:56:38.161Z,1.50
2022-08-26T20:59:08.231Z,1.60
2022-08-26T21:01:42.054Z,1.08
2022-08-26T21:04:13.943Z,1.30
2022-08-26T21:06:45.125Z,1.20
2022-08-26T21:09:20.728Z,1.05
2022-08-26T21:11:51.305Z,1.33
2022-08-26T21:14:25.729Z,1.58
2022-08-26T21:16:54.838Z,1.30
2022-08-26T21:19:23.615Z,1.02
2022-08-26T21:21:51.876Z,1.17
2022-08-26T21:24:20.143Z,1.20
2022-08-26T21:26:49.124Z,1.20
2022-08-26T21:29:18.784Z,1.27
2022-08-26T21:31:47.203Z,1.00
2022-08-26T21:34:16.012Z,1.23
2022-08-26T21:36:44.665Z,1.17
2022-08-26T21:39:12.933Z,1.50
2022-08-26T21:41:42.632Z,1.65
2022-08-26T21:44:11.746Z,1.77
2022-08-26T21:46:41.635Z,2.05
2022-08-26T21:49:12.532Z,1.60
2022-08-26T21:51:44.128Z,2.30
2022-08-26T21:54:13.364Z,3.17
2022-08-26T21:56:44.711Z,3.85
2022-08-26T21:59:13.831Z,3.15
2022-08-26T22:01:43.326Z,3.95
2022-08-26T22:04:11.878Z,3.72
2022-08-26T22:06:46.530Z,3.90
2022-08-26T22:09:16.768Z,3.35
2022-08-26T22:11:45.870Z,3.20
2022-08-26T22:14:14.659Z,3.35
2022-08-26T22:16:50.166Z,3.65
2022-08-26T22:19:20.047Z,3.83
2022-08-26T22:21:50.143Z,2.95
2022-08-26T22:24:18.981Z,3.00
2022-08-26T22:26:48.248Z,3.10
2022-08-26T22:29:17.416Z,3.17
2022-08-26T22:31:47.487Z,3.13
2022-08-26T22:34:19.545Z,2.80
2022-08-26T22:36:49.558Z,3.17
2022-08-26T22:39:22.166Z,2.80
2022-08-26T22:41:51.207Z,4.18
2022-08-26T22:44:22.345Z,2.05
2022-08-26T22:46:54.845Z,2.53
2022-08-26T22:49:23.316Z,2.28
2022-08-26T22:51:52.147Z,2.72
2022-08-26T22:54:20.828Z,3.08
2022-08-26T22:56:49.073Z,2.42
2022-08-26T22:59:18.000Z,2.88
2022-08-26T23:01:47.480Z,1.92
2022-08-26T23:04:17.065Z,2.17
2022-08-26T23:06:47.546Z,2.03
2022-08-26T23:09:18.326Z,1.92
2022-08-26T23:11:47.566Z,2.30
2022-08-26T23:14:16.465Z,2.17
2022-08-26T23:16:44.761Z,1.70
2022-08-26T23:19:15.364Z,1.95
2022-08-26T23:21:45.350Z,2.97
2022-08-26T23:24:14.903Z,2.00
2022-08-26T23:26:43.585Z,2.72
2022-08-26T23:29:14.126Z,2.17
2022-08-26T23:31:43.194Z,2.30
2022-08-26T23:34:29.389Z,2.22
2022-08-26T23:37:00.264Z,1.60
2022-08-26T23:39:29.415Z,1.97
2022-08-26T23:41:58.280Z,3.30
2022-08-26T23:44:26.945Z,2.45
2022-08-26T23:46:55.491Z,1.85
2022-08-26T23:49:24.346Z,2.08
2022-08-26T23:52:10.297Z,2.10
2022-08-26T23:54:40.738Z,2.65
2022-08-26T23:57:09.785Z,2.72
2022-08-26T23:59:38.851Z,2.17
